Henderson, TX (75652)

7:15 AM CDT on May 26, 2015 (GMT -0500)
Wright City, TX | | Change Station
CLOSE
Current Station
Personal Weather Station
Location: Troup, TX
Elevation: 453 ft
Nearby Weather Stations
Active Advisory: Flood Warning

Elev 453 ft 32.18 °N, 95.00 °W | Updated 3 minutes ago

Overcast
Overcast
63.7 °F
Feels Like 63.7 °F
N
0.0
Wind Variable Wind from WSW

Today
High -- | Low -- °F
--% Chance of Precip.
Yesterday
High -- | Low -- °F
Precip. -- in
6:15 AM 8:17 PM
First Quarter, 57% visible
Pressure 29.96 in
Visibility 10.0 miles
Clouds Overcast 1100 ft
Dew Point 63 °F
Humidity 99%
Rainfall 0.00 in
Snow Depth Not available.
UV 0 out of 12
Pollen 1.00 out of 12
Air Quality Not available.
Flu Activity Sporadic
METAR KGGG 261153Z 19007KT 10SM OVC011 19/17 A2997 RMK AO2 SLP146 70159 T01890172 10189 20178 53007

More Conditions Fewer Conditions

Pressure 29.96 in
Visibility 10.0 miles
Clouds Overcast 1100 ft
Dew Point 63 °F
Humidity 99%
Rainfall 0.00 in
Snow Depth Not available.
UV 0 out of 12
Pollen 1.00 out of 12
Air Quality Not available.
Flu Activity Sporadic
METAR KGGG 261153Z 19007KT 10SM OVC011 19/17 A2997 RMK AO2 SLP146 70159 T01890172 10189 20178 53007

More Conditions Fewer Conditions

10-Day Weather Forecast

Almanac

Astronomy

May. 26, 2015 Rise Set
Actual Time
Civil Twilight
Nautical Twilight
Astronomical Twilight
Moon
Length of Visible Light
Length of Day
Tomorrow will be .
, % of the Moon is Illuminated

Today's Extremes

State Highs State Lows

Community

WunderPhotos

Upload Photos

1,824,324 photos uploaded!

WunderBlogs® & News

Nearby

Air Quality

  Air Quality AQ Index Pollutant
Not available.

Snow Depth

Station Depth Elevation

Earthquake Activity

City Distance Mag. Time & Date
Minimum magnitude displayed is 2.5.

Coastal Water Temperatures

Place Temperature

Stations

Nearby Weather Stations

Station Location Temp. Windchill Dew Point Humidity Wind Precip. Elev Updated Type
                   
Flood Warning
Statement as of 10:23 AM CDT on May 25, 2015

The Flood Warning continues for
the Attoyac Bayou near Chireno, Texas.
* Until further notice... or until the warning is cancelled.
* At 930 am Monday the stage was 15.7 feet.
* Minor flooding is occurring and minor flooding is forecast.
* Flood stage is 14 feet.
* Forecast... The Bayou will continue to fall to a stage of 14.7 feet
by Tuesday morning.
* Impact... at 14.0 feet... expect lowland flooding for the next several
days of the heavily wooded floodplain. Ranchers that have cattle
and equipment near the river should move them to higher ground.


Lat... Lon 3142 9432 3191 9451 3192 9447 3157 9429 3150 9430